sensor_id;sensor_type;location;lat;lon;timestamp;temperature;humidity
68450;SHT30;67758;39.572;2.652;2023-04-25T00:02:18;17.75;86.95
68450;SHT30;67758;39.572;2.652;2023-04-25T00:04:44;17.81;86.95
68450;SHT30;67758;39.572;2.652;2023-04-25T00:07:10;17.87;86.71
68450;SHT30;67758;39.572;2.652;2023-04-25T00:09:36;17.93;86.30
68450;SHT30;67758;39.572;2.652;2023-04-25T00:12:02;17.94;86.75
68450;SHT30;67758;39.572;2.652;2023-04-25T00:14:28;17.98;86.85
68450;SHT30;67758;39.572;2.652;2023-04-25T00:16:53;17.97;88.09
68450;SHT30;67758;39.572;2.652;2023-04-25T00:19:19;18.00;88.38
68450;SHT30;67758;39.572;2.652;2023-04-25T00:21:45;18.00;88.34
68450;SHT30;67758;39.572;2.652;2023-04-25T00:24:12;18.00;88.45
68450;SHT30;67758;39.572;2.652;2023-04-25T00:26:37;18.01;88.31
68450;SHT30;67758;39.572;2.652;2023-04-25T00:29:03;18.02;88.61
68450;SHT30;67758;39.572;2.652;2023-04-25T00:31:29;18.01;88.64
68450;SHT30;67758;39.572;2.652;2023-04-25T00:33:55;18.05;88.59
68450;SHT30;67758;39.572;2.652;2023-04-25T00:36:21;18.09;88.57
68450;SHT30;67758;39.572;2.652;2023-04-25T00:38:47;18.16;88.58
68450;SHT30;67758;39.572;2.652;2023-04-25T00:41:13;18.11;88.80
68450;SHT30;67758;39.572;2.652;2023-04-25T00:43:39;18.22;88.66
68450;SHT30;67758;39.572;2.652;2023-04-25T00:46:05;18.21;88.81
68450;SHT30;67758;39.572;2.652;2023-04-25T00:48:31;18.24;88.90
68450;SHT30;67758;39.572;2.652;2023-04-25T00:50:58;18.16;89.05
68450;SHT30;67758;39.572;2.652;2023-04-25T00:53:26;18.22;89.08
68450;SHT30;67758;39.572;2.652;2023-04-25T00:55:54;18.22;89.15
68450;SHT30;67758;39.572;2.652;2023-04-25T00:58:21;18.25;89.51
68450;SHT30;67758;39.572;2.652;2023-04-25T01:00:48;18.25;89.76
68450;SHT30;67758;39.572;2.652;2023-04-25T01:03:16;18.22;90.18
68450;SHT30;67758;39.572;2.652;2023-04-25T01:05:43;18.22;90.25
68450;SHT30;67758;39.572;2.652;2023-04-25T01:08:10;18.21;90.49
68450;SHT30;67758;39.572;2.652;2023-04-25T01:10:39;18.21;90.97
68450;SHT30;67758;39.572;2.652;2023-04-25T01:13:06;18.26;90.89
68450;SHT30;67758;39.572;2.652;2023-04-25T01:15:33;18.24;91.15
68450;SHT30;67758;39.572;2.652;2023-04-25T01:18:05;18.22;90.99
68450;SHT30;67758;39.572;2.652;2023-04-25T01:20:32;18.28;90.48
68450;SHT30;67758;39.572;2.652;2023-04-25T01:23:00;18.31;90.16
68450;SHT30;67758;39.572;2.652;2023-04-25T01:25:30;18.26;89.83
68450;SHT30;67758;39.572;2.652;2023-04-25T01:27:58;18.19;89.61
68450;SHT30;67758;39.572;2.652;2023-04-25T01:30:28;18.18;89.49
68450;SHT30;67758;39.572;2.652;2023-04-25T01:32:56;18.06;89.56
68450;SHT30;67758;39.572;2.652;2023-04-25T01:35:22;18.01;89.60
68450;SHT30;67758;39.572;2.652;2023-04-25T01:37:50;17.98;89.60
68450;SHT30;67758;39.572;2.652;2023-04-25T01:40:17;17.91;89.66
68450;SHT30;67758;39.572;2.652;2023-04-25T01:42:44;17.90;89.74
68450;SHT30;67758;39.572;2.652;2023-04-25T01:45:11;17.84;89.87
68450;SHT30;67758;39.572;2.652;2023-04-25T01:47:37;17.85;89.77
68450;SHT30;67758;39.572;2.652;2023-04-25T01:50:06;17.81;89.86
68450;SHT30;67758;39.572;2.652;2023-04-25T01:52:32;17.81;90.25
68450;SHT30;67758;39.572;2.652;2023-04-25T01:54:59;17.81;90.30
68450;SHT30;67758;39.572;2.652;2023-04-25T01:57:26;17.87;90.35
68450;SHT30;67758;39.572;2.652;2023-04-25T02:00:03;17.88;90.37
68450;SHT30;67758;39.572;2.652;2023-04-25T02:02:29;17.87;90.56
68450;SHT30;67758;39.572;2.652;2023-04-25T02:04:55;17.93;90.70
68450;SHT30;67758;39.572;2.652;2023-04-25T02:07:21;17.98;90.70
68450;SHT30;67758;39.572;2.652;2023-04-25T02:09:47;18.04;90.54
68450;SHT30;67758;39.572;2.652;2023-04-25T02:12:13;18.05;90.74
68450;SHT30;67758;39.572;2.652;2023-04-25T02:14:38;18.11;91.02
68450;SHT30;67758;39.572;2.652;2023-04-25T02:17:04;18.18;90.93
68450;SHT30;67758;39.572;2.652;2023-04-25T02:19:31;18.18;90.95
68450;SHT30;67758;39.572;2.652;2023-04-25T02:21:56;18.18;90.77
68450;SHT30;67758;39.572;2.652;2023-04-25T02:24:23;18.21;90.60
68450;SHT30;67758;39.572;2.652;2023-04-25T02:26:49;18.16;90.65
68450;SHT30;67758;39.572;2.652;2023-04-25T02:29:15;18.02;89.65
68450;SHT30;67758;39.572;2.652;2023-04-25T02:31:40;18.06;89.44
68450;SHT30;67758;39.572;2.652;2023-04-25T02:34:06;17.97;87.58
68450;SHT30;67758;39.572;2.652;2023-04-25T02:36:32;17.94;86.92
68450;SHT30;67758;39.572;2.652;2023-04-25T02:39:00;17.93;85.88
68450;SHT30;67758;39.572;2.652;2023-04-25T02:41:26;17.94;85.64
68450;SHT30;67758;39.572;2.652;2023-04-25T02:43:52;17.91;85.55
68450;SHT30;67758;39.572;2.652;2023-04-25T02:46:17;17.93;85.42
68450;SHT30;67758;39.572;2.652;2023-04-25T02:48:43;17.88;85.19
68450;SHT30;67758;39.572;2.652;2023-04-25T02:51:09;17.70;85.36
68450;SHT30;67758;39.572;2.652;2023-04-25T02:53:34;17.75;85.36
68450;SHT30;67758;39.572;2.652;2023-04-25T02:56:00;17.74;85.23
68450;SHT30;67758;39.572;2.652;2023-04-25T02:58:26;17.71;85.42
68450;SHT30;67758;39.572;2.652;2023-04-25T03:00:52;17.73;85.29
68450;SHT30;67758;39.572;2.652;2023-04-25T03:03:18;17.70;85.20
68450;SHT30;67758;39.572;2.652;2023-04-25T03:05:48;17.75;85.00
68450;SHT30;67758;39.572;2.652;2023-04-25T03:08:13;17.75;84.70
68450;SHT30;67758;39.572;2.652;2023-04-25T03:10:39;17.73;85.03
68450;SHT30;67758;39.572;2.652;2023-04-25T03:13:05;17.74;85.56
68450;SHT30;67758;39.572;2.652;2023-04-25T03:15:30;17.74;85.67
68450;SHT30;67758;39.572;2.652;2023-04-25T03:17:56;17.74;85.54
68450;SHT30;67758;39.572;2.652;2023-04-25T03:20:24;17.75;85.71
68450;SHT30;67758;39.572;2.652;2023-04-25T03:22:50;17.75;85.73
68450;SHT30;67758;39.572;2.652;2023-04-25T03:25:16;17.77;86.36
68450;SHT30;67758;39.572;2.652;2023-04-25T03:27:41;17.78;86.29
68450;SHT30;67758;39.572;2.652;2023-04-25T03:30:07;17.81;86.29
68450;SHT30;67758;39.572;2.652;2023-04-25T03:32:33;17.83;85.95
68450;SHT30;67758;39.572;2.652;2023-04-25T03:34:59;17.75;85.54
68450;SHT30;67758;39.572;2.652;2023-04-25T03:37:25;17.74;85.65
68450;SHT30;67758;39.572;2.652;2023-04-25T03:39:50;17.75;85.31
68450;SHT30;67758;39.572;2.652;2023-04-25T03:42:16;17.77;85.84
68450;SHT30;67758;39.572;2.652;2023-04-25T03:44:43;17.75;85.92
68450;SHT30;67758;39.572;2.652;2023-04-25T03:47:08;17.78;85.85
68450;SHT30;67758;39.572;2.652;2023-04-25T03:49:34;17.90;84.90
68450;SHT30;67758;39.572;2.652;2023-04-25T03:52:01;17.90;85.69
68450;SHT30;67758;39.572;2.652;2023-04-25T03:54:27;17.91;86.78
68450;SHT30;67758;39.572;2.652;2023-04-25T03:56:52;17.91;87.16
68450;SHT30;67758;39.572;2.652;2023-04-25T03:59:18;17.90;87.09
68450;SHT30;67758;39.572;2.652;2023-04-25T04:01:43;17.87;87.20
68450;SHT30;67758;39.572;2.652;2023-04-25T04:04:09;17.80;86.77
68450;SHT30;67758;39.572;2.652;2023-04-25T04:06:34;17.67;85.60
68450;SHT30;67758;39.572;2.652;2023-04-25T04:09:02;17.69;87.32
68450;SHT30;67758;39.572;2.652;2023-04-25T04:11:28;17.69;87.90
68450;SHT30;67758;39.572;2.652;2023-04-25T04:13:54;17.74;88.14
68450;SHT30;67758;39.572;2.652;2023-04-25T04:16:20;17.67;88.01
68450;SHT30;67758;39.572;2.652;2023-04-25T04:18:45;17.74;88.27
68450;SHT30;67758;39.572;2.652;2023-04-25T04:21:11;17.69;88.11
68450;SHT30;67758;39.572;2.652;2023-04-25T04:23:37;17.64;88.13
68450;SHT30;67758;39.572;2.652;2023-04-25T04:26:03;17.69;88.16
68450;SHT30;67758;39.572;2.652;2023-04-25T04:28:28;17.74;87.88
68450;SHT30;67758;39.572;2.652;2023-04-25T04:30:55;17.66;86.47
68450;SHT30;67758;39.572;2.652;2023-04-25T04:33:20;17.54;86.18
68450;SHT30;67758;39.572;2.652;2023-04-25T04:35:46;17.46;86.24
68450;SHT30;67758;39.572;2.652;2023-04-25T04:38:13;17.42;86.85
68450;SHT30;67758;39.572;2.652;2023-04-25T04:40:41;17.43;87.25
68450;SHT30;67758;39.572;2.652;2023-04-25T04:43:08;17.46;87.41
68450;SHT30;67758;39.572;2.652;2023-04-25T04:45:36;17.46;87.25
68450;SHT30;67758;39.572;2.652;2023-04-25T04:48:05;17.43;86.82
68450;SHT30;67758;39.572;2.652;2023-04-25T04:50:31;17.44;86.96
68450;SHT30;67758;39.572;2.652;2023-04-25T04:52:58;17.47;86.84
68450;SHT30;67758;39.572;2.652;2023-04-25T04:55:23;17.44;86.95
68450;SHT30;67758;39.572;2.652;2023-04-25T04:57:49;17.39;86.44
68450;SHT30;67758;39.572;2.652;2023-04-25T05:00:15;17.39;86.20
68450;SHT30;67758;39.572;2.652;2023-04-25T05:02:41;17.39;86.75
68450;SHT30;67758;39.572;2.652;2023-04-25T05:05:07;17.33;86.16
68450;SHT30;67758;39.572;2.652;2023-04-25T05:07:33;17.24;85.91
68450;SHT30;67758;39.572;2.652;2023-04-25T05:10:20;17.19;85.94
68450;SHT30;67758;39.572;2.652;2023-04-25T05:13:06;17.11;85.91
68450;SHT30;67758;39.572;2.652;2023-04-25T05:15:55;17.13;86.22
68450;SHT30;67758;39.572;2.652;2023-04-25T05:18:21;17.16;86.41
68450;SHT30;67758;39.572;2.652;2023-04-25T05:20:49;17.18;86.61
68450;SHT30;67758;39.572;2.652;2023-04-25T05:23:14;17.20;86.84
68450;SHT30;67758;39.572;2.652;2023-04-25T05:25:40;17.19;86.74
68450;SHT30;67758;39.572;2.652;2023-04-25T05:28:06;17.18;87.01
68450;SHT30;67758;39.572;2.652;2023-04-25T05:30:32;17.19;86.53
68450;SHT30;67758;39.572;2.652;2023-04-25T05:32:57;17.16;86.60
68450;SHT30;67758;39.572;2.652;2023-04-25T05:35:23;17.23;86.45
68450;SHT30;67758;39.572;2.652;2023-04-25T05:37:48;17.26;86.29
68450;SHT30;67758;39.572;2.652;2023-04-25T05:40:14;17.36;86.06
68450;SHT30;67758;39.572;2.652;2023-04-25T05:42:42;17.32;86.00
68450;SHT30;67758;39.572;2.652;2023-04-25T05:45:08;17.32;86.02
68450;SHT30;67758;39.572;2.652;2023-04-25T05:47:34;17.40;85.89
68450;SHT30;67758;39.572;2.652;2023-04-25T05:49:59;17.53;85.84
68450;SHT30;67758;39.572;2.652;2023-04-25T05:52:25;17.55;85.55
68450;SHT30;67758;39.572;2.652;2023-04-25T05:54:51;17.57;85.27
68450;SHT30;67758;39.572;2.652;2023-04-25T05:57:23;17.60;85.42
68450;SHT30;67758;39.572;2.652;2023-04-25T05:59:52;17.66;85.40
68450;SHT30;67758;39.572;2.652;2023-04-25T06:02:19;17.73;85.17
68450;SHT30;67758;39.572;2.652;2023-04-25T06:04:46;17.70;86.02
68450;SHT30;67758;39.572;2.652;2023-04-25T06:07:12;17.74;86.21
68450;SHT30;67758;39.572;2.652;2023-04-25T06:09:38;17.80;86.09
68450;SHT30;67758;39.572;2.652;2023-04-25T06:12:06;17.81;86.28
68450;SHT30;67758;39.572;2.652;2023-04-25T06:14:33;17.91;86.21
68450;SHT30;67758;39.572;2.652;2023-04-25T06:16:59;17.97;86.26
68450;SHT30;67758;39.572;2.652;2023-04-25T06:19:25;17.97;86.42
68450;SHT30;67758;39.572;2.652;2023-04-25T06:21:50;18.05;86.32
68450;SHT30;67758;39.572;2.652;2023-04-25T06:24:16;18.05;86.36
68450;SHT30;67758;39.572;2.652;2023-04-25T06:26:41;18.16;86.22
68450;SHT30;67758;39.572;2.652;2023-04-25T06:29:07;18.19;86.27
68450;SHT30;67758;39.572;2.652;2023-04-25T06:31:32;18.28;86.55
68450;SHT30;67758;39.572;2.652;2023-04-25T06:33:59;18.22;87.12
68450;SHT30;67758;39.572;2.652;2023-04-25T06:36:24;18.18;87.49
68450;SHT30;67758;39.572;2.652;2023-04-25T06:38:51;18.22;87.58
68450;SHT30;67758;39.572;2.652;2023-04-25T06:41:18;18.14;87.71
68450;SHT30;67758;39.572;2.652;2023-04-25T06:43:44;18.05;87.94
68450;SHT30;67758;39.572;2.652;2023-04-25T06:46:10;18.04;88.11
68450;SHT30;67758;39.572;2.652;2023-04-25T06:48:36;18.11;88.22
68450;SHT30;67758;39.572;2.652;2023-04-25T06:51:02;18.11;87.75
68450;SHT30;67758;39.572;2.652;2023-04-25T06:53:27;18.18;87.33
68450;SHT30;67758;39.572;2.652;2023-04-25T06:55:53;18.26;87.18
68450;SHT30;67758;39.572;2.652;2023-04-25T06:58:18;18.32;87.03
68450;SHT30;67758;39.572;2.652;2023-04-25T07:00:44;18.36;86.66
68450;SHT30;67758;39.572;2.652;2023-04-25T07:03:10;18.42;86.32
68450;SHT30;67758;39.572;2.652;2023-04-25T07:05:35;18.39;86.78
68450;SHT30;67758;39.572;2.652;2023-04-25T07:08:01;18.60;86.39
68450;SHT30;67758;39.572;2.652;2023-04-25T07:10:28;18.67;86.13
68450;SHT30;67758;39.572;2.652;2023-04-25T07:12:53;18.66;86.17
68450;SHT30;67758;39.572;2.652;2023-04-25T07:15:19;18.63;86.20
68450;SHT30;67758;39.572;2.652;2023-04-25T07:17:45;18.62;86.14
68450;SHT30;67758;39.572;2.652;2023-04-25T07:20:10;18.59;86.11
68450;SHT30;67758;39.572;2.652;2023-04-25T07:22:36;18.60;86.11
68450;SHT30;67758;39.572;2.652;2023-04-25T07:25:02;18.72;85.62
68450;SHT30;67758;39.572;2.652;2023-04-25T07:27:29;18.80;85.51
68450;SHT30;67758;39.572;2.652;2023-04-25T07:29:55;18.87;85.11
68450;SHT30;67758;39.572;2.652;2023-04-25T07:32:21;18.95;85.12
68450;SHT30;67758;39.572;2.652;2023-04-25T07:34:47;18.93;85.14
68450;SHT30;67758;39.572;2.652;2023-04-25T07:37:13;18.95;85.13
68450;SHT30;67758;39.572;2.652;2023-04-25T07:39:39;18.96;85.01
68450;SHT30;67758;39.572;2.652;2023-04-25T07:42:05;19.00;84.79
68450;SHT30;67758;39.572;2.652;2023-04-25T07:44:34;19.06;84.54
68450;SHT30;67758;39.572;2.652;2023-04-25T07:47:05;19.07;84.82
68450;SHT30;67758;39.572;2.652;2023-04-25T07:49:36;19.11;84.58
68450;SHT30;67758;39.572;2.652;2023-04-25T07:52:03;19.26;84.52
68450;SHT30;67758;39.572;2.652;2023-04-25T07:54:29;19.48;83.79
68450;SHT30;67758;39.572;2.652;2023-04-25T07:56:55;19.55;83.18
68450;SHT30;67758;39.572;2.652;2023-04-25T07:59:21;19.58;83.07
68450;SHT30;67758;39.572;2.652;2023-04-25T08:01:47;19.59;82.78
68450;SHT30;67758;39.572;2.652;2023-04-25T08:04:13;19.46;83.19
68450;SHT30;67758;39.572;2.652;2023-04-25T08:06:38;19.41;83.53
68450;SHT30;67758;39.572;2.652;2023-04-25T08:09:06;19.46;83.53
68450;SHT30;67758;39.572;2.652;2023-04-25T08:11:33;19.59;83.37
68450;SHT30;67758;39.572;2.652;2023-04-25T08:13:59;19.68;82.93
68450;SHT30;67758;39.572;2.652;2023-04-25T08:16:25;19.67;83.11
68450;SHT30;67758;39.572;2.652;2023-04-25T08:18:50;19.72;83.15
68450;SHT30;67758;39.572;2.652;2023-04-25T08:21:16;19.64;82.84
68450;SHT30;67758;39.572;2.652;2023-04-25T08:23:42;19.48;83.32
68450;SHT30;67758;39.572;2.652;2023-04-25T08:26:07;19.48;83.31
68450;SHT30;67758;39.572;2.652;2023-04-25T08:28:33;19.58;83.08
68450;SHT30;67758;39.572;2.652;2023-04-25T08:30:59;19.62;83.05
68450;SHT30;67758;39.572;2.652;2023-04-25T08:33:25;19.57;83.08
68450;SHT30;67758;39.572;2.652;2023-04-25T08:35:51;19.64;82.97
68450;SHT30;67758;39.572;2.652;2023-04-25T08:38:17;19.64;82.94
68450;SHT30;67758;39.572;2.652;2023-04-25T08:40:44;19.57;83.30
68450;SHT30;67758;39.572;2.652;2023-04-25T08:43:13;19.62;83.51
68450;SHT30;67758;39.572;2.652;2023-04-25T08:45:41;19.74;83.27
68450;SHT30;67758;39.572;2.652;2023-04-25T08:48:10;19.83;82.67
68450;SHT30;67758;39.572;2.652;2023-04-25T08:50:49;20.04;82.12
68450;SHT30;67758;39.572;2.652;2023-04-25T08:53:16;20.06;81.78
68450;SHT30;67758;39.572;2.652;2023-04-25T08:55:46;19.96;82.22
68450;SHT30;67758;39.572;2.652;2023-04-25T08:58:13;20.05;82.27
68450;SHT30;67758;39.572;2.652;2023-04-25T09:00:39;19.95;82.44
68450;SHT30;67758;39.572;2.652;2023-04-25T09:03:05;20.00;82.51
68450;SHT30;67758;39.572;2.652;2023-04-25T09:05:32;20.09;82.41
68450;SHT30;67758;39.572;2.652;2023-04-25T09:07:58;19.85;82.68
68450;SHT30;67758;39.572;2.652;2023-04-25T09:10:23;19.92;82.87
68450;SHT30;67758;39.572;2.652;2023-04-25T09:13:07;19.92;82.66
68450;SHT30;67758;39.572;2.652;2023-04-25T09:15:48;19.83;82.73
68450;SHT30;67758;39.572;2.652;2023-04-25T09:18:24;19.83;83.18
68450;SHT30;67758;39.572;2.652;2023-04-25T09:20:52;19.88;83.06
68450;SHT30;67758;39.572;2.652;2023-04-25T09:23:19;19.93;82.96
68450;SHT30;67758;39.572;2.652;2023-04-25T09:25:51;20.15;82.81
68450;SHT30;67758;39.572;2.652;2023-04-25T09:28:23;20.18;82.84
68450;SHT30;67758;39.572;2.652;2023-04-25T09:30:49;20.26;82.45
68450;SHT30;67758;39.572;2.652;2023-04-25T09:33:15;20.43;82.15
68450;SHT30;67758;39.572;2.652;2023-04-25T09:35:42;20.42;82.10
68450;SHT30;67758;39.572;2.652;2023-04-25T09:38:13;20.57;81.47
68450;SHT30;67758;39.572;2.652;2023-04-25T09:40:43;20.47;81.64
68450;SHT30;67758;39.572;2.652;2023-04-25T09:43:10;20.51;81.74
68450;SHT30;67758;39.572;2.652;2023-04-25T09:45:42;20.59;81.28
68450;SHT30;67758;39.572;2.652;2023-04-25T09:48:22;20.69;80.71
68450;SHT30;67758;39.572;2.652;2023-04-25T09:51:10;20.59;80.36
68450;SHT30;67758;39.572;2.652;2023-04-25T09:53:37;20.60;80.26
68450;SHT30;67758;39.572;2.652;2023-04-25T09:56:05;20.60;79.94
68450;SHT30;67758;39.572;2.652;2023-04-25T09:58:32;20.66;79.88
68450;SHT30;67758;39.572;2.652;2023-04-25T10:01:00;20.97;79.28
68450;SHT30;67758;39.572;2.652;2023-04-25T10:03:26;21.00;78.83
68450;SHT30;67758;39.572;2.652;2023-04-25T10:05:55;21.14;78.45
68450;SHT30;67758;39.572;2.652;2023-04-25T10:08:22;21.05;78.39
68450;SHT30;67758;39.572;2.652;2023-04-25T10:10:48;21.07;79.04
68450;SHT30;67758;39.572;2.652;2023-04-25T10:13:16;21.27;78.84
68450;SHT30;67758;39.572;2.652;2023-04-25T10:15:42;21.35;78.42
68450;SHT30;67758;39.572;2.652;2023-04-25T10:18:08;21.32;78.60
68450;SHT30;67758;39.572;2.652;2023-04-25T10:20:34;21.27;79.07
68450;SHT30;67758;39.572;2.652;2023-04-25T10:23:13;21.61;78.45
68450;SHT30;67758;39.572;2.652;2023-04-25T10:25:39;21.45;78.77
68450;SHT30;67758;39.572;2.652;2023-04-25T10:28:05;21.62;78.21
68450;SHT30;67758;39.572;2.652;2023-04-25T10:30:31;21.81;77.62
68450;SHT30;67758;39.572;2.652;2023-04-25T10:32:58;21.69;77.62
68450;SHT30;67758;39.572;2.652;2023-04-25T10:35:29;21.59;78.18
68450;SHT30;67758;39.572;2.652;2023-04-25T10:38:05;21.65;77.87
68450;SHT30;67758;39.572;2.652;2023-04-25T10:40:31;21.79;77.55
68450;SHT30;67758;39.572;2.652;2023-04-25T10:43:36;21.88;77.60
68450;SHT30;67758;39.572;2.652;2023-04-25T10:46:27;22.17;76.22
68450;SHT30;67758;39.572;2.652;2023-04-25T10:48:58;23.19;73.38
68450;SHT30;67758;39.572;2.652;2023-04-25T10:51:33;24.37;69.40
68450;SHT30;67758;39.572;2.652;2023-04-25T10:59:16;24.42;67.77
68450;SHT30;67758;39.572;2.652;2023-04-25T11:01:44;24.22;68.20
68450;SHT30;67758;39.572;2.652;2023-04-25T11:04:36;24.42;67.65
68450;SHT30;67758;39.572;2.652;2023-04-25T11:07:10;24.61;67.32
68450;SHT30;67758;39.572;2.652;2023-04-25T11:09:44;25.32;65.93
68450;SHT30;67758;39.572;2.652;2023-04-25T11:12:11;26.01;63.79
68450;SHT30;67758;39.572;2.652;2023-04-25T11:14:37;25.56;64.52
68450;SHT30;67758;39.572;2.652;2023-04-25T11:17:03;25.44;64.57
68450;SHT30;67758;39.572;2.652;2023-04-25T11:19:29;25.95;63.91
68450;SHT30;67758;39.572;2.652;2023-04-25T11:21:59;25.10;65.84
68450;SHT30;67758;39.572;2.652;2023-04-25T11:24:35;24.57;68.24
68450;SHT30;67758;39.572;2.652;2023-04-25T11:27:02;24.61;67.99
68450;SHT30;67758;39.572;2.652;2023-04-25T11:29:33;25.69;65.62
68450;SHT30;67758;39.572;2.652;2023-04-25T11:31:59;26.39;63.99
68450;SHT30;67758;39.572;2.652;2023-04-25T11:34:27;26.05;63.74
68450;SHT30;67758;39.572;2.652;2023-04-25T11:36:53;26.35;63.35
68450;SHT30;67758;39.572;2.652;2023-04-25T11:39:19;25.37;65.46
68450;SHT30;67758;39.572;2.652;2023-04-25T11:41:46;25.05;66.01
68450;SHT30;67758;39.572;2.652;2023-04-25T11:44:11;25.43;65.33
68450;SHT30;67758;39.572;2.652;2023-04-25T11:46:37;26.18;63.62
68450;SHT30;67758;39.572;2.652;2023-04-25T11:49:03;26.18;63.31
68450;SHT30;67758;39.572;2.652;2023-04-25T11:51:30;25.66;64.18
68450;SHT30;67758;39.572;2.652;2023-04-25T11:53:57;26.11;63.29
68450;SHT30;67758;39.572;2.652;2023-04-25T11:56:22;26.21;62.57
68450;SHT30;67758;39.572;2.652;2023-04-25T11:58:58;26.60;61.95
68450;SHT30;67758;39.572;2.652;2023-04-25T12:01:35;25.91;63.73
68450;SHT30;67758;39.572;2.652;2023-04-25T12:04:21;26.18;63.56
68450;SHT30;67758;39.572;2.652;2023-04-25T12:06:51;26.42;62.41
68450;SHT30;67758;39.572;2.652;2023-04-25T12:09:29;25.83;63.97
68450;SHT30;67758;39.572;2.652;2023-04-25T12:11:56;25.47;64.93
68450;SHT30;67758;39.572;2.652;2023-04-25T12:14:27;25.66;64.80
68450;SHT30;67758;39.572;2.652;2023-04-25T12:16:58;25.37;65.59
68450;SHT30;67758;39.572;2.652;2023-04-25T12:19:25;25.22;65.90
68450;SHT30;67758;39.572;2.652;2023-04-25T12:21:52;25.40;66.06
68450;SHT30;67758;39.572;2.652;2023-04-25T12:24:21;25.88;64.84
68450;SHT30;67758;39.572;2.652;2023-04-25T12:27:03;25.15;65.71
68450;SHT30;67758;39.572;2.652;2023-04-25T12:29:32;25.08;66.31
68450;SHT30;67758;39.572;2.652;2023-04-25T12:31:58;25.27;66.06
68450;SHT30;67758;39.572;2.652;2023-04-25T12:34:24;25.50;65.59
68450;SHT30;67758;39.572;2.652;2023-04-25T12:36:51;25.15;66.17
68450;SHT30;67758;39.572;2.652;2023-04-25T12:39:24;24.99;66.69
68450;SHT30;67758;39.572;2.652;2023-04-25T12:41:51;25.02;66.73
68450;SHT30;67758;39.572;2.652;2023-04-25T12:44:20;24.71;67.96
68450;SHT30;67758;39.572;2.652;2023-04-25T12:46:46;25.16;66.79
68450;SHT30;67758;39.572;2.652;2023-04-25T12:49:12;24.98;67.09
68450;SHT30;67758;39.572;2.652;2023-04-25T12:51:38;25.23;65.98
68450;SHT30;67758;39.572;2.652;2023-04-25T12:54:05;25.26;66.20
68450;SHT30;67758;39.572;2.652;2023-04-25T12:56:34;24.89;66.53
68450;SHT30;67758;39.572;2.652;2023-04-25T12:59:00;25.05;66.41
68450;SHT30;67758;39.572;2.652;2023-04-25T13:01:27;24.78;67.30
68450;SHT30;67758;39.572;2.652;2023-04-25T13:03:53;25.24;66.14
68450;SHT30;67758;39.572;2.652;2023-04-25T13:06:19;25.44;65.69
68450;SHT30;67758;39.572;2.652;2023-04-25T13:08:46;25.69;64.94
68450;SHT30;67758;39.572;2.652;2023-04-25T13:11:12;25.94;64.68
68450;SHT30;67758;39.572;2.652;2023-04-25T13:13:37;26.02;64.08
68450;SHT30;67758;39.572;2.652;2023-04-25T13:16:04;26.17;63.81
68450;SHT30;67758;39.572;2.652;2023-04-25T13:18:31;25.49;65.60
68450;SHT30;67758;39.572;2.652;2023-04-25T13:20:57;25.37;65.89
68450;SHT30;67758;39.572;2.652;2023-04-25T13:23:25;24.82;67.74
68450;SHT30;67758;39.572;2.652;2023-04-25T13:25:51;25.40;66.06
68450;SHT30;67758;39.572;2.652;2023-04-25T13:28:17;25.43;66.15
68450;SHT30;67758;39.572;2.652;2023-04-25T13:30:43;25.97;64.49
68450;SHT30;67758;39.572;2.652;2023-04-25T13:33:08;25.54;65.58
68450;SHT30;67758;39.572;2.652;2023-04-25T13:35:36;25.34;66.70
68450;SHT30;67758;39.572;2.652;2023-04-25T13:38:02;25.63;65.82
68450;SHT30;67758;39.572;2.652;2023-04-25T13:40:28;25.27;66.83
68450;SHT30;67758;39.572;2.652;2023-04-25T13:42:55;24.76;68.08
68450;SHT30;67758;39.572;2.652;2023-04-25T13:45:21;24.92;66.71
68450;SHT30;67758;39.572;2.652;2023-04-25T13:47:50;24.58;67.10
68450;SHT30;67758;39.572;2.652;2023-04-25T13:50:19;24.44;67.49
68450;SHT30;67758;39.572;2.652;2023-04-25T13:52:45;24.44;67.33
68450;SHT30;67758;39.572;2.652;2023-04-25T13:55:11;24.62;67.53
68450;SHT30;67758;39.572;2.652;2023-04-25T13:57:37;24.48;69.11
68450;SHT30;67758;39.572;2.652;2023-04-25T14:00:04;24.65;69.12
68450;SHT30;67758;39.572;2.652;2023-04-25T14:02:37;24.18;70.27
68450;SHT30;67758;39.572;2.652;2023-04-25T14:05:04;24.37;70.10
68450;SHT30;67758;39.572;2.652;2023-04-25T14:07:31;24.11;70.14
68450;SHT30;67758;39.572;2.652;2023-04-25T14:09:57;24.10;70.56
68450;SHT30;67758;39.572;2.652;2023-04-25T14:12:23;24.55;69.41
68450;SHT30;67758;39.572;2.652;2023-04-25T14:14:48;24.30;70.30
68450;SHT30;67758;39.572;2.652;2023-04-25T14:17:14;24.40;69.76
68450;SHT30;67758;39.572;2.652;2023-04-25T14:19:40;24.41;69.97
68450;SHT30;67758;39.572;2.652;2023-04-25T14:22:09;24.22;70.28
68450;SHT30;67758;39.572;2.652;2023-04-25T14:24:34;24.48;69.51
68450;SHT30;67758;39.572;2.652;2023-04-25T14:27:00;24.51;69.59
68450;SHT30;67758;39.572;2.652;2023-04-25T14:29:26;24.57;69.25
68450;SHT30;67758;39.572;2.652;2023-04-25T14:31:52;25.19;67.92
68450;SHT30;67758;39.572;2.652;2023-04-25T14:34:18;25.59;66.56
68450;SHT30;67758;39.572;2.652;2023-04-25T14:36:44;26.04;64.89
68450;SHT30;67758;39.572;2.652;2023-04-25T14:39:10;26.09;64.81
68450;SHT30;67758;39.572;2.652;2023-04-25T14:41:35;26.59;63.67
68450;SHT30;67758;39.572;2.652;2023-04-25T14:44:01;26.63;63.24
68450;SHT30;67758;39.572;2.652;2023-04-25T14:46:26;26.06;64.50
68450;SHT30;67758;39.572;2.652;2023-04-25T14:48:52;26.24;64.28
68450;SHT30;67758;39.572;2.652;2023-04-25T14:51:18;26.65;63.22
68450;SHT30;67758;39.572;2.652;2023-04-25T14:53:43;26.59;63.39
68450;SHT30;67758;39.572;2.652;2023-04-25T14:56:09;26.17;64.34
68450;SHT30;67758;39.572;2.652;2023-04-25T14:58:35;25.91;65.19
68450;SHT30;67758;39.572;2.652;2023-04-25T15:01:01;25.63;65.85
68450;SHT30;67758;39.572;2.652;2023-04-25T15:03:26;25.81;65.44
68450;SHT30;67758;39.572;2.652;2023-04-25T15:05:54;26.39;64.06
68450;SHT30;67758;39.572;2.652;2023-04-25T15:08:20;26.31;63.67
68450;SHT30;67758;39.572;2.652;2023-04-25T15:10:46;26.29;63.87
68450;SHT30;67758;39.572;2.652;2023-04-25T15:13:12;25.83;65.04
68450;SHT30;67758;39.572;2.652;2023-04-25T15:15:38;25.93;64.68
68450;SHT30;67758;39.572;2.652;2023-04-25T15:18:03;25.30;66.20
68450;SHT30;67758;39.572;2.652;2023-04-25T15:20:29;25.18;66.79
68450;SHT30;67758;39.572;2.652;2023-04-25T15:22:55;24.96;67.50
68450;SHT30;67758;39.572;2.652;2023-04-25T15:25:20;25.43;66.11
68450;SHT30;67758;39.572;2.652;2023-04-25T15:27:46;25.75;65.66
68450;SHT30;67758;39.572;2.652;2023-04-25T15:30:17;25.84;65.13
68450;SHT30;67758;39.572;2.652;2023-04-25T15:32:46;26.38;63.80
68450;SHT30;67758;39.572;2.652;2023-04-25T15:35:13;26.51;63.16
68450;SHT30;67758;39.572;2.652;2023-04-25T15:37:39;26.38;63.17